sensor_id;sensor_type;location;lat;lon;timestamp;temperature;humidity
54429;DHT22;40337;52.978;6.310;2023-01-01T00:01:44;13.70;99.90
54429;DHT22;40337;52.978;6.310;2023-01-01T00:04:12;13.60;99.90
54429;DHT22;40337;52.978;6.310;2023-01-01T00:06:39;13.50;99.90
54429;DHT22;40337;52.978;6.310;2023-01-01T00:09:05;13.40;99.90
54429;DHT22;40337;52.978;6.310;2023-01-01T00:11:49;13.40;99.90
54429;DHT22;40337;52.978;6.310;2023-01-01T00:14:14;13.30;99.90
54429;DHT22;40337;52.978;6.310;2023-01-01T00:16:40;13.30;99.90
54429;DHT22;40337;52.978;6.310;2023-01-01T00:19:05;13.20;99.90
54429;DHT22;40337;52.978;6.310;2023-01-01T00:21:31;13.20;99.90
54429;DHT22;40337;52.978;6.310;2023-01-01T00:23:57;13.20;99.90
54429;DHT22;40337;52.978;6.310;2023-01-01T00:26:22;13.20;99.90
54429;DHT22;40337;52.978;6.310;2023-01-01T00:28:48;13.20;99.90
54429;DHT22;40337;52.978;6.310;2023-01-01T00:31:18;13.20;99.90
54429;DHT22;40337;52.978;6.310;2023-01-01T00:33:45;13.20;99.90
54429;DHT22;40337;52.978;6.310;2023-01-01T00:36:15;13.20;99.90
54429;DHT22;40337;52.978;6.310;2023-01-01T00:38:42;13.10;99.90
54429;DHT22;40337;52.978;6.310;2023-01-01T00:41:08;13.20;99.90
54429;DHT22;40337;52.978;6.310;2023-01-01T00:43:34;13.20;99.90
54429;DHT22;40337;52.978;6.310;2023-01-01T00:46:00;13.20;99.90
54429;DHT22;40337;52.978;6.310;2023-01-01T00:48:25;13.30;99.90
54429;DHT22;40337;52.978;6.310;2023-01-01T00:50:51;13.40;99.90
54429;DHT22;40337;52.978;6.310;2023-01-01T00:53:18;13.40;99.90
54429;DHT22;40337;52.978;6.310;2023-01-01T00:55:44;13.50;99.90
54429;DHT22;40337;52.978;6.310;2023-01-01T00:58:11;13.50;99.90
54429;DHT22;40337;52.978;6.310;2023-01-01T01:00:37;13.50;99.90
54429;DHT22;40337;52.978;6.310;2023-01-01T01:03:03;13.50;99.90
54429;DHT22;40337;52.978;6.310;2023-01-01T01:05:29;13.60;99.90
54429;DHT22;40337;52.978;6.310;2023-01-01T01:07:56;13.70;99.90
54429;DHT22;40337;52.978;6.310;2023-01-01T01:10:22;13.70;99.90
54429;DHT22;40337;52.978;6.310;2023-01-01T01:12:47;13.70;99.90
54429;DHT22;40337;52.978;6.310;2023-01-01T01:15:13;13.70;99.90
54429;DHT22;40337;52.978;6.310;2023-01-01T01:17:39;13.70;99.90
54429;DHT22;40337;52.978;6.310;2023-01-01T01:20:06;13.70;99.90
54429;DHT22;40337;52.978;6.310;2023-01-01T01:22:32;13.60;99.90
54429;DHT22;40337;52.978;6.310;2023-01-01T01:24:59;13.50;99.90
54429;DHT22;40337;52.978;6.310;2023-01-01T01:27:25;13.40;99.90
54429;DHT22;40337;52.978;6.310;2023-01-01T01:29:51;13.30;99.90
54429;DHT22;40337;52.978;6.310;2023-01-01T01:32:16;13.30;99.90
54429;DHT22;40337;52.978;6.310;2023-01-01T01:34:42;13.30;99.90
54429;DHT22;40337;52.978;6.310;2023-01-01T01:37:07;13.20;99.90
54429;DHT22;40337;52.978;6.310;2023-01-01T01:39:33;13.20;99.90
54429;DHT22;40337;52.978;6.310;2023-01-01T01:41:59;13.10;99.90
54429;DHT22;40337;52.978;6.310;2023-01-01T01:47:36;13.10;99.90
54429;DHT22;40337;52.978;6.310;2023-01-01T01:50:05;13.10;99.90
54429;DHT22;40337;52.978;6.310;2023-01-01T01:52:33;13.00;99.90
54429;DHT22;40337;52.978;6.310;2023-01-01T01:55:03;13.10;99.90
54429;DHT22;40337;52.978;6.310;2023-01-01T01:57:30;13.00;99.90
54429;DHT22;40337;52.978;6.310;2023-01-01T01:59:57;13.10;99.90
54429;DHT22;40337;52.978;6.310;2023-01-01T02:02:49;13.10;99.90
54429;DHT22;40337;52.978;6.310;2023-01-01T02:05:17;13.20;99.90
54429;DHT22;40337;52.978;6.310;2023-01-01T02:07:44;13.20;99.90
54429;DHT22;40337;52.978;6.310;2023-01-01T02:10:10;13.20;99.90
54429;DHT22;40337;52.978;6.310;2023-01-01T02:12:35;13.20;99.90
54429;DHT22;40337;52.978;6.310;2023-01-01T02:15:01;13.30;99.90
54429;DHT22;40337;52.978;6.310;2023-01-01T02:17:32;13.40;99.90
54429;DHT22;40337;52.978;6.310;2023-01-01T02:20:20;13.40;99.90
54429;DHT22;40337;52.978;6.310;2023-01-01T02:23:21;13.40;99.90
54429;DHT22;40337;52.978;6.310;2023-01-01T02:26:16;13.50;99.90
54429;DHT22;40337;52.978;6.310;2023-01-01T02:31:18;13.40;99.90
54429;DHT22;40337;52.978;6.310;2023-01-01T02:33:45;13.40;99.90
54429;DHT22;40337;52.978;6.310;2023-01-01T02:36:12;13.40;99.90
54429;DHT22;40337;52.978;6.310;2023-01-01T02:38:44;13.40;99.90
54429;DHT22;40337;52.978;6.310;2023-01-01T02:41:20;13.40;99.90
54429;DHT22;40337;52.978;6.310;2023-01-01T02:43:46;13.40;99.90
54429;DHT22;40337;52.978;6.310;2023-01-01T02:46:12;13.40;99.90
54429;DHT22;40337;52.978;6.310;2023-01-01T02:48:44;13.40;99.90
54429;DHT22;40337;52.978;6.310;2023-01-01T03:05:32;13.40;99.90
54429;DHT22;40337;52.978;6.310;2023-01-01T03:08:13;13.40;99.90
54429;DHT22;40337;52.978;6.310;2023-01-01T03:11:06;13.50;99.90
54429;DHT22;40337;52.978;6.310;2023-01-01T03:16:44;13.60;99.90
54429;DHT22;40337;52.978;6.310;2023-01-01T03:19:24;13.60;99.90
54429;DHT22;40337;52.978;6.310;2023-01-01T03:24:35;13.60;99.90
54429;DHT22;40337;52.978;6.310;2023-01-01T03:27:22;13.60;99.90
54429;DHT22;40337;52.978;6.310;2023-01-01T03:29:50;13.60;99.90
54429;DHT22;40337;52.978;6.310;2023-01-01T03:32:19;13.50;99.90
54429;DHT22;40337;52.978;6.310;2023-01-01T03:34:51;13.40;99.90
54429;DHT22;40337;52.978;6.310;2023-01-01T03:37:25;13.30;99.90
54429;DHT22;40337;52.978;6.310;2023-01-01T03:39:55;13.10;99.90
54429;DHT22;40337;52.978;6.310;2023-01-01T03:42:33;13.00;99.90
54429;DHT22;40337;52.978;6.310;2023-01-01T03:45:11;12.80;99.90
54429;DHT22;40337;52.978;6.310;2023-01-01T03:47:40;12.70;99.90
54429;DHT22;40337;52.978;6.310;2023-01-01T03:50:06;12.70;99.90
54429;DHT22;40337;52.978;6.310;2023-01-01T03:55:34;12.60;99.90
54429;DHT22;40337;52.978;6.310;2023-01-01T03:58:08;12.60;99.90
54429;DHT22;40337;52.978;6.310;2023-01-01T04:00:43;12.50;99.90
54429;DHT22;40337;52.978;6.310;2023-01-01T04:03:25;12.50;99.90
54429;DHT22;40337;52.978;6.310;2023-01-01T04:05:51;12.40;99.90
54429;DHT22;40337;52.978;6.310;2023-01-01T04:08:17;12.30;99.90
54429;DHT22;40337;52.978;6.310;2023-01-01T04:10:49;12.20;99.90
54429;DHT22;40337;52.978;6.310;2023-01-01T04:13:15;12.20;99.90
54429;DHT22;40337;52.978;6.310;2023-01-01T04:15:41;12.10;99.90
54429;DHT22;40337;52.978;6.310;2023-01-01T04:18:06;12.10;99.90
54429;DHT22;40337;52.978;6.310;2023-01-01T04:20:32;12.10;99.90
54429;DHT22;40337;52.978;6.310;2023-01-01T04:22:59;12.00;99.90
54429;DHT22;40337;52.978;6.310;2023-01-01T04:25:26;12.00;99.90
54429;DHT22;40337;52.978;6.310;2023-01-01T04:27:51;12.00;99.90
54429;DHT22;40337;52.978;6.310;2023-01-01T04:30:17;12.00;99.90
54429;DHT22;40337;52.978;6.310;2023-01-01T04:32:43;12.00;99.90
54429;DHT22;40337;52.978;6.310;2023-01-01T04:35:10;12.00;99.90
54429;DHT22;40337;52.978;6.310;2023-01-01T04:37:43;12.00;99.90
54429;DHT22;40337;52.978;6.310;2023-01-01T04:40:10;12.00;99.90
54429;DHT22;40337;52.978;6.310;2023-01-01T04:42:36;12.20;99.90
54429;DHT22;40337;52.978;6.310;2023-01-01T04:45:01;12.30;99.90
54429;DHT22;40337;52.978;6.310;2023-01-01T04:47:27;12.40;99.90
54429;DHT22;40337;52.978;6.310;2023-01-01T04:49:53;12.40;99.90
54429;DHT22;40337;52.978;6.310;2023-01-01T04:52:19;12.50;99.90
54429;DHT22;40337;52.978;6.310;2023-01-01T04:54:45;12.50;99.90
54429;DHT22;40337;52.978;6.310;2023-01-01T04:57:11;12.60;99.90
54429;DHT22;40337;52.978;6.310;2023-01-01T04:59:36;12.60;99.90
54429;DHT22;40337;52.978;6.310;2023-01-01T05:02:02;12.60;99.90
54429;DHT22;40337;52.978;6.310;2023-01-01T05:04:28;12.60;99.90
54429;DHT22;40337;52.978;6.310;2023-01-01T05:06:53;12.50;99.90
54429;DHT22;40337;52.978;6.310;2023-01-01T05:09:19;12.50;99.90
54429;DHT22;40337;52.978;6.310;2023-01-01T05:11:44;12.60;99.90
54429;DHT22;40337;52.978;6.310;2023-01-01T05:14:10;12.60;99.90
54429;DHT22;40337;52.978;6.310;2023-01-01T05:16:37;12.50;99.90
54429;DHT22;40337;52.978;6.310;2023-01-01T05:19:04;12.60;99.90
54429;DHT22;40337;52.978;6.310;2023-01-01T05:21:34;12.50;99.90
54429;DHT22;40337;52.978;6.310;2023-01-01T05:24:06;12.60;99.90
54429;DHT22;40337;52.978;6.310;2023-01-01T05:26:34;12.60;99.90
54429;DHT22;40337;52.978;6.310;2023-01-01T05:29:01;12.60;99.90
54429;DHT22;40337;52.978;6.310;2023-01-01T05:31:29;12.60;99.90
54429;DHT22;40337;52.978;6.310;2023-01-01T05:33:56;12.60;99.90
54429;DHT22;40337;52.978;6.310;2023-01-01T05:36:27;12.60;99.90
54429;DHT22;40337;52.978;6.310;2023-01-01T05:38:53;12.70;99.90
54429;DHT22;40337;52.978;6.310;2023-01-01T05:41:19;12.70;99.90
54429;DHT22;40337;52.978;6.310;2023-01-01T05:43:46;12.70;99.90
54429;DHT22;40337;52.978;6.310;2023-01-01T05:46:23;12.70;99.90
54429;DHT22;40337;52.978;6.310;2023-01-01T05:48:50;12.70;99.90
54429;DHT22;40337;52.978;6.310;2023-01-01T05:51:21;12.70;99.90
54429;DHT22;40337;52.978;6.310;2023-01-01T05:53:47;12.70;99.90
54429;DHT22;40337;52.978;6.310;2023-01-01T05:56:14;12.70;99.90
54429;DHT22;40337;52.978;6.310;2023-01-01T05:58:40;12.70;99.90
54429;DHT22;40337;52.978;6.310;2023-01-01T06:01:07;12.60;99.90
54429;DHT22;40337;52.978;6.310;2023-01-01T06:03:32;12.60;99.90
54429;DHT22;40337;52.978;6.310;2023-01-01T06:06:12;12.60;99.90
54429;DHT22;40337;52.978;6.310;2023-01-01T06:08:38;12.60;99.90
54429;DHT22;40337;52.978;6.310;2023-01-01T06:11:06;12.50;99.90
54429;DHT22;40337;52.978;6.310;2023-01-01T06:13:32;12.50;99.90
54429;DHT22;40337;52.978;6.310;2023-01-01T06:16:00;12.50;99.90
54429;DHT22;40337;52.978;6.310;2023-01-01T06:18:29;12.50;99.90
54429;DHT22;40337;52.978;6.310;2023-01-01T06:20:55;12.50;99.90
54429;DHT22;40337;52.978;6.310;2023-01-01T06:23:27;12.40;99.90
54429;DHT22;40337;52.978;6.310;2023-01-01T06:25:53;12.40;99.90
54429;DHT22;40337;52.978;6.310;2023-01-01T06:28:18;12.40;99.90
54429;DHT22;40337;52.978;6.310;2023-01-01T06:30:44;12.40;99.90
54429;DHT22;40337;52.978;6.310;2023-01-01T06:33:09;12.50;99.90
54429;DHT22;40337;52.978;6.310;2023-01-01T06:35:35;12.40;99.90
54429;DHT22;40337;52.978;6.310;2023-01-01T06:38:01;12.40;99.90
54429;DHT22;40337;52.978;6.310;2023-01-01T06:40:26;12.40;99.90
54429;DHT22;40337;52.978;6.310;2023-01-01T06:42:52;12.40;99.90
54429;DHT22;40337;52.978;6.310;2023-01-01T06:45:17;12.40;99.90
54429;DHT22;40337;52.978;6.310;2023-01-01T06:47:43;12.40;99.90
54429;DHT22;40337;52.978;6.310;2023-01-01T06:50:08;12.30;99.90
54429;DHT22;40337;52.978;6.310;2023-01-01T06:52:34;12.30;99.90
54429;DHT22;40337;52.978;6.310;2023-01-01T06:54:59;12.30;99.90
54429;DHT22;40337;52.978;6.310;2023-01-01T06:57:25;12.30;99.90
54429;DHT22;40337;52.978;6.310;2023-01-01T06:59:51;12.20;99.90
54429;DHT22;40337;52.978;6.310;2023-01-01T07:02:16;12.20;99.90
54429;DHT22;40337;52.978;6.310;2023-01-01T07:04:42;12.10;99.90
54429;DHT22;40337;52.978;6.310;2023-01-01T07:07:07;12.20;99.90
54429;DHT22;40337;52.978;6.310;2023-01-01T07:09:33;12.10;99.90
54429;DHT22;40337;52.978;6.310;2023-01-01T07:11:58;12.10;99.90
54429;DHT22;40337;52.978;6.310;2023-01-01T07:14:24;12.10;99.90
54429;DHT22;40337;52.978;6.310;2023-01-01T07:16:49;12.00;99.90
54429;DHT22;40337;52.978;6.310;2023-01-01T07:19:15;12.10;99.90
54429;DHT22;40337;52.978;6.310;2023-01-01T07:21:50;12.10;99.90
54429;DHT22;40337;52.978;6.310;2023-01-01T07:24:16;12.10;99.90
54429;DHT22;40337;52.978;6.310;2023-01-01T07:26:43;12.10;99.90
54429;DHT22;40337;52.978;6.310;2023-01-01T07:29:08;12.10;99.90
54429;DHT22;40337;52.978;6.310;2023-01-01T07:31:36;12.00;99.90
54429;DHT22;40337;52.978;6.310;2023-01-01T07:34:02;12.00;99.90
54429;DHT22;40337;52.978;6.310;2023-01-01T07:36:27;12.00;99.90
54429;DHT22;40337;52.978;6.310;2023-01-01T07:38:53;12.00;99.90
54429;DHT22;40337;52.978;6.310;2023-01-01T07:41:19;12.00;99.90
54429;DHT22;40337;52.978;6.310;2023-01-01T07:43:44;12.00;99.90
54429;DHT22;40337;52.978;6.310;2023-01-01T07:46:11;12.00;99.90
54429;DHT22;40337;52.978;6.310;2023-01-01T07:48:37;12.00;99.90
54429;DHT22;40337;52.978;6.310;2023-01-01T07:51:02;11.90;99.90
54429;DHT22;40337;52.978;6.310;2023-01-01T07:53:28;12.00;99.90
54429;DHT22;40337;52.978;6.310;2023-01-01T07:55:53;11.90;99.90
54429;DHT22;40337;52.978;6.310;2023-01-01T07:58:19;11.90;99.90
54429;DHT22;40337;52.978;6.310;2023-01-01T08:00:46;11.90;99.90
54429;DHT22;40337;52.978;6.310;2023-01-01T08:03:12;11.90;99.90
54429;DHT22;40337;52.978;6.310;2023-01-01T08:05:37;11.80;99.90
54429;DHT22;40337;52.978;6.310;2023-01-01T08:08:03;11.80;99.90
54429;DHT22;40337;52.978;6.310;2023-01-01T08:10:30;11.80;99.90
54429;DHT22;40337;52.978;6.310;2023-01-01T08:13:04;11.80;99.90
54429;DHT22;40337;52.978;6.310;2023-01-01T08:15:31;11.80;99.90
54429;DHT22;40337;52.978;6.310;2023-01-01T08:17:58;11.70;99.90
54429;DHT22;40337;52.978;6.310;2023-01-01T08:20:25;11.70;99.90
54429;DHT22;40337;52.978;6.310;2023-01-01T08:22:50;11.70;99.90
54429;DHT22;40337;52.978;6.310;2023-01-01T08:25:16;11.70;99.90
54429;DHT22;40337;52.978;6.310;2023-01-01T08:27:42;11.70;99.90
54429;DHT22;40337;52.978;6.310;2023-01-01T08:30:09;11.70;99.90
54429;DHT22;40337;52.978;6.310;2023-01-01T08:32:35;11.70;99.90
54429;DHT22;40337;52.978;6.310;2023-01-01T08:35:01;11.70;99.90
54429;DHT22;40337;52.978;6.310;2023-01-01T08:37:26;11.70;99.90
54429;DHT22;40337;52.978;6.310;2023-01-01T08:39:52;11.70;99.90
54429;DHT22;40337;52.978;6.310;2023-01-01T08:42:18;11.70;99.90
54429;DHT22;40337;52.978;6.310;2023-01-01T08:44:43;11.70;99.90
54429;DHT22;40337;52.978;6.310;2023-01-01T08:47:23;11.70;99.90
54429;DHT22;40337;52.978;6.310;2023-01-01T08:49:49;11.60;99.90
54429;DHT22;40337;52.978;6.310;2023-01-01T08:52:15;11.60;99.90
54429;DHT22;40337;52.978;6.310;2023-01-01T08:54:42;11.60;99.90
54429;DHT22;40337;52.978;6.310;2023-01-01T08:57:08;11.60;99.90
54429;DHT22;40337;52.978;6.310;2023-01-01T08:59:34;11.70;99.90
54429;DHT22;40337;52.978;6.310;2023-01-01T09:01:59;11.60;99.90
54429;DHT22;40337;52.978;6.310;2023-01-01T09:04:25;11.70;99.90
54429;DHT22;40337;52.978;6.310;2023-01-01T09:06:51;11.70;99.90
54429;DHT22;40337;52.978;6.310;2023-01-01T09:09:16;11.70;99.90
54429;DHT22;40337;52.978;6.310;2023-01-01T09:11:56;11.70;99.90
54429;DHT22;40337;52.978;6.310;2023-01-01T09:14:23;11.70;99.90
54429;DHT22;40337;52.978;6.310;2023-01-01T09:16:49;11.70;99.90
54429;DHT22;40337;52.978;6.310;2023-01-01T09:19:15;11.70;99.90
54429;DHT22;40337;52.978;6.310;2023-01-01T09:21:40;11.70;99.90
54429;DHT22;40337;52.978;6.310;2023-01-01T09:24:06;11.70;99.90
54429;DHT22;40337;52.978;6.310;2023-01-01T09:26:32;11.70;99.90
54429;DHT22;40337;52.978;6.310;2023-01-01T09:28:57;11.70;99.90
54429;DHT22;40337;52.978;6.310;2023-01-01T09:31:23;11.70;99.90
54429;DHT22;40337;52.978;6.310;2023-01-01T09:33:49;11.70;99.90
54429;DHT22;40337;52.978;6.310;2023-01-01T09:36:27;11.70;99.90
54429;DHT22;40337;52.978;6.310;2023-01-01T09:38:54;11.80;99.90
54429;DHT22;40337;52.978;6.310;2023-01-01T09:41:53;11.80;99.90
54429;DHT22;40337;52.978;6.310;2023-01-01T09:47:03;11.80;99.90
54429;DHT22;40337;52.978;6.310;2023-01-01T09:49:40;11.80;99.90
54429;DHT22;40337;52.978;6.310;2023-01-01T09:52:11;11.80;99.90
54429;DHT22;40337;52.978;6.310;2023-01-01T09:54:54;11.80;99.90
54429;DHT22;40337;52.978;6.310;2023-01-01T09:57:25;11.80;99.90
54429;DHT22;40337;52.978;6.310;2023-01-01T09:59:55;11.90;99.90
54429;DHT22;40337;52.978;6.310;2023-01-01T10:02:57;11.90;99.90
54429;DHT22;40337;52.978;6.310;2023-01-01T10:11:16;11.90;99.90
54429;DHT22;40337;52.978;6.310;2023-01-01T10:13:48;11.80;99.90
54429;DHT22;40337;52.978;6.310;2023-01-01T10:16:29;11.80;99.90
54429;DHT22;40337;52.978;6.310;2023-01-01T10:18:58;11.80;99.90
54429;DHT22;40337;52.978;6.310;2023-01-01T10:21:30;11.70;99.90
54429;DHT22;40337;52.978;6.310;2023-01-01T10:24:15;11.70;99.90
54429;DHT22;40337;52.978;6.310;2023-01-01T10:26:48;11.80;99.90
54429;DHT22;40337;52.978;6.310;2023-01-01T10:29:20;11.80;99.90
54429;DHT22;40337;52.978;6.310;2023-01-01T10:31:48;11.80;99.90
54429;DHT22;40337;52.978;6.310;2023-01-01T10:34:22;11.80;99.90
54429;DHT22;40337;52.978;6.310;2023-01-01T10:36:51;11.80;99.90
54429;DHT22;40337;52.978;6.310;2023-01-01T10:39:17;11.70;99.90
54429;DHT22;40337;52.978;6.310;2023-01-01T10:41:44;11.80;99.90
54429;DHT22;40337;52.978;6.310;2023-01-01T10:44:11;11.90;99.90
54429;DHT22;40337;52.978;6.310;2023-01-01T10:46:40;11.90;99.90
54429;DHT22;40337;52.978;6.310;2023-01-01T10:49:10;11.90;99.90
54429;DHT22;40337;52.978;6.310;2023-01-01T10:51:45;11.90;99.90
54429;DHT22;40337;52.978;6.310;2023-01-01T10:54:30;11.80;99.90
54429;DHT22;40337;52.978;6.310;2023-01-01T10:56:57;11.80;99.90
54429;DHT22;40337;52.978;6.310;2023-01-01T10:59:34;11.80;99.90
54429;DHT22;40337;52.978;6.310;2023-01-01T11:02:21;11.80;99.90
54429;DHT22;40337;52.978;6.310;2023-01-01T11:04:48;11.70;99.90
54429;DHT22;40337;52.978;6.310;2023-01-01T11:07:29;11.80;99.90
54429;DHT22;40337;52.978;6.310;2023-01-01T11:09:59;11.80;99.90
54429;DHT22;40337;52.978;6.310;2023-01-01T11:12:29;11.80;99.90
54429;DHT22;40337;52.978;6.310;2023-01-01T11:14:56;11.80;99.90
54429;DHT22;40337;52.978;6.310;2023-01-01T11:17:28;11.80;99.90
54429;DHT22;40337;52.978;6.310;2023-01-01T11:19:56;11.90;99.90
54429;DHT22;40337;52.978;6.310;2023-01-01T11:22:40;11.90;99.90
54429;DHT22;40337;52.978;6.310;2023-01-01T11:25:35;11.90;99.90
54429;DHT22;40337;52.978;6.310;2023-01-01T11:30:45;12.00;99.90
54429;DHT22;40337;52.978;6.310;2023-01-01T11:33:22;12.00;99.90
54429;DHT22;40337;52.978;6.310;2023-01-01T11:35:49;12.00;99.90
54429;DHT22;40337;52.978;6.310;2023-01-01T11:38:18;11.90;99.90
54429;DHT22;40337;52.978;6.310;2023-01-01T11:40:52;11.90;99.90
54429;DHT22;40337;52.978;6.310;2023-01-01T11:43:40;11.90;99.90
54429;DHT22;40337;52.978;6.310;2023-01-01T11:46:10;12.00;99.90
54429;DHT22;40337;52.978;6.310;2023-01-01T11:48:45;12.00;99.90
54429;DHT22;40337;52.978;6.310;2023-01-01T11:51:33;12.10;99.90
54429;DHT22;40337;52.978;6.310;2023-01-01T11:56:52;12.50;99.90
54429;DHT22;40337;52.978;6.310;2023-01-01T11:59:26;12.60;99.90
54429;DHT22;40337;52.978;6.310;2023-01-01T12:01:57;12.70;99.90
54429;DHT22;40337;52.978;6.310;2023-01-01T12:04:42;12.90;99.90
54429;DHT22;40337;52.978;6.310;2023-01-01T12:07:22;13.00;99.90
54429;DHT22;40337;52.978;6.310;2023-01-01T12:09:57;13.00;99.90
54429;DHT22;40337;52.978;6.310;2023-01-01T12:12:27;12.80;99.90
54429;DHT22;40337;52.978;6.310;2023-01-01T12:15:00;12.70;99.90
54429;DHT22;40337;52.978;6.310;2023-01-01T12:17:50;12.60;99.90
54429;DHT22;40337;52.978;6.310;2023-01-01T12:20:29;12.40;99.90
54429;DHT22;40337;52.978;6.310;2023-01-01T12:22:57;12.40;99.90
54429;DHT22;40337;52.978;6.310;2023-01-01T12:25:35;12.30;99.90
54429;DHT22;40337;52.978;6.310;2023-01-01T12:30:44;12.30;99.90
54429;DHT22;40337;52.978;6.310;2023-01-01T12:33:44;12.30;99.90
54429;DHT22;40337;52.978;6.310;2023-01-01T12:36:35;12.30;99.90
54429;DHT22;40337;52.978;6.310;2023-01-01T12:58:41;12.70;99.90
54429;DHT22;40337;52.978;6.310;2023-01-01T13:01:21;12.70;99.90
54429;DHT22;40337;52.978;6.310;2023-01-01T13:03:54;12.60;99.90
54429;DHT22;40337;52.978;6.310;2023-01-01T13:06:26;12.60;99.90
54429;DHT22;40337;52.978;6.310;2023-01-01T13:08:58;12.50;99.90
54429;DHT22;40337;52.978;6.310;2023-01-01T13:11:24;12.50;99.90
54429;DHT22;40337;52.978;6.310;2023-01-01T13:13:52;12.40;99.90
54429;DHT22;40337;52.978;6.310;2023-01-01T13:16:36;12.40;99.90
54429;DHT22;40337;52.978;6.310;2023-01-01T13:19:03;12.40;99.90
54429;DHT22;40337;52.978;6.310;2023-01-01T13:21:29;12.40;99.90
54429;DHT22;40337;52.978;6.310;2023-01-01T13:23:59;12.50;99.90
54429;DHT22;40337;52.978;6.310;2023-01-01T13:37:25;12.40;99.90
54429;DHT22;40337;52.978;6.310;2023-01-01T13:40:03;12.30;99.90
54429;DHT22;40337;52.978;6.310;2023-01-01T13:43:04;12.30;99.90
54429;DHT22;40337;52.978;6.310;2023-01-01T13:45:37;12.20;99.90
54429;DHT22;40337;52.978;6.310;2023-01-01T13:51:29;12.10;99.90
54429;DHT22;40337;52.978;6.310;2023-01-01T14:02:41;12.10;99.90
54429;DHT22;40337;52.978;6.310;2023-01-01T14:05:27;12.10;99.90
54429;DHT22;40337;52.978;6.310;2023-01-01T14:07:56;12.00;99.90
54429;DHT22;40337;52.978;6.310;2023-01-01T14:13:12;11.90;99.90
54429;DHT22;40337;52.978;6.310;2023-01-01T14:15:53;11.90;99.90
54429;DHT22;40337;52.978;6.310;2023-01-01T14:18:30;11.90;99.90
54429;DHT22;40337;52.978;6.310;2023-01-01T14:20:56;11.90;99.90
54429;DHT22;40337;52.978;6.310;2023-01-01T14:23:38;11.90;99.90
54429;DHT22;40337;52.978;6.310;2023-01-01T14:26:09;11.80;99.90
54429;DHT22;40337;52.978;6.310;2023-01-01T14:28:37;11.80;99.90
54429;DHT22;40337;52.978;6.310;2023-01-01T14:31:18;11.80;99.90
54429;DHT22;40337;52.978;6.310;2023-01-01T14:33:45;11.80;99.90
54429;DHT22;40337;52.978;6.310;2023-01-01T14:36:35;11.80;99.90
54429;DHT22;40337;52.978;6.310;2023-01-01T14:39:00;11.70;99.90
54429;DHT22;40337;52.978;6.310;2023-01-01T14:41:27;11.70;99.90
54429;DHT22;40337;52.978;6.310;2023-01-01T14:44:02;11.70;99.90
54429;DHT22;40337;52.978;6.310;2023-01-01T14:46:29;11.80;99.90
54429;DHT22;40337;52.978;6.310;2023-01-01T14:49:08;11.60;99.90
54429;DHT22;40337;52.978;6.310;2023-01-01T14:51:34;11.60;99.90
54429;DHT22;40337;52.978;6.310;2023-01-01T14:54:04;11.50;99.90
54429;DHT22;40337;52.978;6.310;2023-01-01T14:56:35;11.60;99.90
54429;DHT22;40337;52.978;6.310;2023-01-01T14:59:10;11.50;99.90
54429;DHT22;40337;52.978;6.310;2023-01-01T15:01:36;11.30;99.90
54429;DHT22;40337;52.978;6.310;2023-01-01T15:04:17;11.50;99.90
54429;DHT22;40337;52.978;6.310;2023-01-01T15:06:43;11.50;99.90
54429;DHT22;40337;52.978;6.310;2023-01-01T15:09:15;11.40;99.90
54429;DHT22;40337;52.978;6.310;2023-01-01T15:11:41;11.40;99.90
54429;DHT22;40337;52.978;6.310;2023-01-01T15:14:31;11.40;99.90
54429;DHT22;40337;52.978;6.310;2023-01-01T15:17:05;11.40;99.90
54429;DHT22;40337;52.978;6.310;2023-01-01T15:19:31;11.30;99.90
54429;DHT22;40337;52.978;6.310;2023-01-01T15:21:59;11.30;99.90
54429;DHT22;40337;52.978;6.310;2023-01-01T15:24:25;11.20;99.90
54429;DHT22;40337;52.978;6.310;2023-01-01T15:26:55;11.20;99.90
54429;DHT22;40337;52.978;6.310;2023-01-01T15:29:28;11.20;99.90
54429;DHT22;40337;52.978;6.310;2023-01-01T15:32:00;11.10;99.90
54429;DHT22;40337;52.978;6.310;2023-01-01T15:34:31;11.00;99.90
54429;DHT22;40337;52.978;6.310;2023-01-01T15:37:17;11.00;99.90
54429;DHT22;40337;52.978;6.310;2023-01-01T15:39:51;10.90;99.90
54429;DHT22;40337;52.978;6.310;2023-01-01T15:47:39;10.90;99.90
54429;DHT22;40337;52.978;6.310;2023-01-01T15:50:26;10.90;99.90
54429;DHT22;40337;52.978;6.310;2023-01-01T15:52:55;10.90;99.90
54429;DHT22;40337;52.978;6.310;2023-01-01T15:55:30;10.80;99.90
54429;DHT22;40337;52.978;6.310;2023-01-01T15:57:58;10.70;99.90
54429;DHT22;40337;52.978;6.310;2023-01-01T16:00:27;10.80;99.90
54429;DHT22;40337;52.978;6.310;2023-01-01T16:02:57;10.80;99.90
54429;DHT22;40337;52.978;6.310;2023-01-01T16:05:25;10.80;99.90
54429;DHT22;40337;52.978;6.310;2023-01-01T16:07:58;10.90;99.90
54429;DHT22;40337;52.978;6.310;2023-01-01T16:10:25;10.90;99.90
54429;DHT22;40337;52.978;6.310;2023-01-01T16:12:50;10.90;99.90
54429;DHT22;40337;52.978;6.310;2023-01-01T16:15:16;11.00;99.90
54429;DHT22;40337;52.978;6.310;2023-01-01T16:17:42;10.90;99.90
54429;DHT22;40337;52.978;6.310;2023-01-01T16:20:16;11.00;99.90
54429;DHT22;40337;52.978;6.310;2023-01-01T16:22:42;10.90;99.90
54429;DHT22;40337;52.978;6.310;2023-01-01T16:25:15;10.90;99.90
54429;DHT22;40337;52.978;6.310;2023-01-01T16:27:41;11.00;99.90
54429;DHT22;40337;52.978;6.310;2023-01-01T16:30:07;10.90;99.90
54429;DHT22;40337;52.978;6.310;2023-01-01T16:32:33;10.90;99.90
54429;DHT22;40337;52.978;6.310;2023-01-01T16:34:58;10.90;99.90
54429;DHT22;40337;52.978;6.310;2023-01-01T16:37:24;10.90;99.90
54429;DHT22;40337;52.978;6.310;2023-01-01T16:39:50;10.80;99.90
54429;DHT22;40337;52.978;6.310;2023-01-01T16:45:16;10.50;99.90
54429;DHT22;40337;52.978;6.310;2023-01-01T16:47:44;10.80;99.90
54429;DHT22;40337;52.978;6.310;2023-01-01T16:50:10;10.80;99.90
54429;DHT22;40337;52.978;6.310;2023-01-01T16:52:36;10.80;99.90
54429;DHT22;40337;52.978;6.310;2023-01-01T16:55:02;10.80;99.90
54429;DHT22;40337;52.978;6.310;2023-01-01T16:57:27;10.80;99.90
54429;DHT22;40337;52.978;6.310;2023-01-01T16:59:53;10.80;99.90
54429;DHT22;40337;52.978;6.310;2023-01-01T17:02:18;10.80;99.90
54429;DHT22;40337;52.978;6.310;2023-01-01T17:04:44;10.80;99.90
54429;DHT22;40337;52.978;6.310;2023-01-01T17:07:09;10.70;99.90
54429;DHT22;40337;52.978;6.310;2023-01-01T17:09:35;10.80;99.90
54429;DHT22;40337;52.978;6.310;2023-01-01T17:12:00;10.80;99.90
54429;DHT22;40337;52.978;6.310;2023-01-01T17:14:26;10.90;99.90
54429;DHT22;40337;52.978;6.310;2023-01-01T17:16:52;10.90;99.90
54429;DHT22;40337;52.978;6.310;2023-01-01T17:19:19;10.80;99.90
54429;DHT22;40337;52.978;6.310;2023-01-01T17:21:46;10.90;99.90
54429;DHT22;40337;52.978;6.310;2023-01-01T17:24:12;10.90;99.90
54429;DHT22;40337;52.978;6.310;2023-01-01T17:26:38;10.80;99.90